sensor_id;sensor_type;location;lat;lon;timestamp;P1;durP1;ratioP1;P2;durP2;ratioP2
70414;SDS011;57837;52.064;113.478;2023-05-10T00:02:44;59.85;;;38.75;;
70414;SDS011;57837;52.064;113.478;2023-05-10T00:05:49;62.05;;;41.38;;
70414;SDS011;57837;52.064;113.478;2023-05-10T00:08:52;73.40;;;42.28;;
70414;SDS011;57837;52.064;113.478;2023-05-10T00:11:56;71.70;;;42.50;;
70414;SDS011;57837;52.064;113.478;2023-05-10T00:15:01;71.40;;;42.80;;
70414;SDS011;57837;52.064;113.478;2023-05-10T00:18:06;61.22;;;41.95;;
70414;SDS011;57837;52.064;113.478;2023-05-10T00:21:10;61.08;;;42.20;;
70414;SDS011;57837;52.064;113.478;2023-05-10T00:24:14;77.28;;;44.08;;
70414;SDS011;57837;52.064;113.478;2023-05-10T00:27:18;69.70;;;41.93;;
70414;SDS011;57837;52.064;113.478;2023-05-10T00:30:22;66.40;;;42.80;;
70414;SDS011;57837;52.064;113.478;2023-05-10T00:33:25;70.97;;;40.90;;
70414;SDS011;57837;52.064;113.478;2023-05-10T00:36:28;73.07;;;44.17;;
70414;SDS011;57837;52.064;113.478;2023-05-10T00:39:32;78.85;;;41.35;;
70414;SDS011;57837;52.064;113.478;2023-05-10T00:42:36;76.00;;;41.83;;
70414;SDS011;57837;52.064;113.478;2023-05-10T00:45:41;62.88;;;41.17;;
70414;SDS011;57837;52.064;113.478;2023-05-10T00:48:45;69.72;;;41.63;;
70414;SDS011;57837;52.064;113.478;2023-05-10T00:51:49;72.72;;;41.22;;
70414;SDS011;57837;52.064;113.478;2023-05-10T00:54:54;65.75;;;40.40;;
70414;SDS011;57837;52.064;113.478;2023-05-10T00:57:58;66.17;;;40.60;;
70414;SDS011;57837;52.064;113.478;2023-05-10T01:01:02;71.15;;;39.63;;
70414;SDS011;57837;52.064;113.478;2023-05-10T01:04:06;68.72;;;38.92;;
70414;SDS011;57837;52.064;113.478;2023-05-10T01:07:10;72.78;;;37.92;;
70414;SDS011;57837;52.064;113.478;2023-05-10T01:10:14;76.63;;;39.45;;
70414;SDS011;57837;52.064;113.478;2023-05-10T01:13:23;65.50;;;37.70;;
70414;SDS011;57837;52.064;113.478;2023-05-10T01:16:39;70.20;;;37.33;;
70414;SDS011;57837;52.064;113.478;2023-05-10T01:19:44;72.90;;;38.83;;
70414;SDS011;57837;52.064;113.478;2023-05-10T01:36:40;66.45;;;37.30;;
70414;SDS011;57837;52.064;113.478;2023-05-10T01:40:00;58.60;;;36.92;;
70414;SDS011;57837;52.064;113.478;2023-05-10T01:43:14;63.28;;;36.78;;
70414;SDS011;57837;52.064;113.478;2023-05-10T01:46:28;63.47;;;36.63;;
70414;SDS011;57837;52.064;113.478;2023-05-10T01:49:50;56.40;;;35.67;;
70414;SDS011;57837;52.064;113.478;2023-05-10T01:52:57;69.43;;;37.17;;
70414;SDS011;57837;52.064;113.478;2023-05-10T01:56:01;64.80;;;36.95;;
70414;SDS011;57837;52.064;113.478;2023-05-10T01:59:08;93.18;;;38.47;;
70414;SDS011;57837;52.064;113.478;2023-05-10T02:02:18;70.40;;;36.37;;
70414;SDS011;57837;52.064;113.478;2023-05-10T02:05:23;70.55;;;37.00;;
70414;SDS011;57837;52.064;113.478;2023-05-10T02:08:28;75.32;;;37.45;;
70414;SDS011;57837;52.064;113.478;2023-05-10T02:11:33;69.88;;;36.92;;
70414;SDS011;57837;52.064;113.478;2023-05-10T02:14:37;66.90;;;35.50;;
70414;SDS011;57837;52.064;113.478;2023-05-10T02:17:43;57.47;;;33.70;;
70414;SDS011;57837;52.064;113.478;2023-05-10T02:20:49;59.17;;;33.70;;
70414;SDS011;57837;52.064;113.478;2023-05-10T02:23:56;57.38;;;32.42;;
70414;SDS011;57837;52.064;113.478;2023-05-10T02:27:03;35.88;;;25.05;;
70414;SDS011;57837;52.064;113.478;2023-05-10T02:30:09;43.42;;;25.83;;
70414;SDS011;57837;52.064;113.478;2023-05-10T02:33:14;49.73;;;27.33;;
70414;SDS011;57837;52.064;113.478;2023-05-10T02:36:19;44.33;;;26.63;;
70414;SDS011;57837;52.064;113.478;2023-05-10T02:39:24;43.92;;;26.23;;
70414;SDS011;57837;52.064;113.478;2023-05-10T02:42:32;36.83;;;24.67;;
70414;SDS011;57837;52.064;113.478;2023-05-10T02:45:38;38.92;;;24.80;;
70414;SDS011;57837;52.064;113.478;2023-05-10T02:48:43;43.73;;;25.10;;
70414;SDS011;57837;52.064;113.478;2023-05-10T02:51:49;42.70;;;25.83;;
70414;SDS011;57837;52.064;113.478;2023-05-10T02:54:58;40.90;;;27.67;;
70414;SDS011;57837;52.064;113.478;2023-05-10T02:58:06;46.97;;;25.48;;
70414;SDS011;57837;52.064;113.478;2023-05-10T03:01:09;43.25;;;26.25;;
70414;SDS011;57837;52.064;113.478;2023-05-10T03:04:13;48.77;;;26.07;;
70414;SDS011;57837;52.064;113.478;2023-05-10T03:07:18;45.42;;;27.38;;
70414;SDS011;57837;52.064;113.478;2023-05-10T03:10:26;45.08;;;26.67;;
70414;SDS011;57837;52.064;113.478;2023-05-10T03:13:34;40.20;;;25.73;;
70414;SDS011;57837;52.064;113.478;2023-05-10T03:16:42;38.00;;;25.50;;
70414;SDS011;57837;52.064;113.478;2023-05-10T03:20:09;41.53;;;24.97;;
70414;SDS011;57837;52.064;113.478;2023-05-10T03:26:24;34.03;;;23.23;;
70414;SDS011;57837;52.064;113.478;2023-05-10T03:29:42;34.78;;;21.10;;
70414;SDS011;57837;52.064;113.478;2023-05-10T03:32:49;30.90;;;21.15;;
70414;SDS011;57837;52.064;113.478;2023-05-10T03:35:53;35.10;;;21.77;;
70414;SDS011;57837;52.064;113.478;2023-05-10T03:38:57;39.97;;;23.75;;
70414;SDS011;57837;52.064;113.478;2023-05-10T03:42:01;38.60;;;21.48;;
70414;SDS011;57837;52.064;113.478;2023-05-10T03:45:05;37.22;;;22.65;;
70414;SDS011;57837;52.064;113.478;2023-05-10T03:48:10;36.38;;;22.27;;
70414;SDS011;57837;52.064;113.478;2023-05-10T03:51:17;34.80;;;23.10;;
70414;SDS011;57837;52.064;113.478;2023-05-10T03:54:21;32.63;;;22.80;;
70414;SDS011;57837;52.064;113.478;2023-05-10T03:57:24;31.52;;;21.95;;
70414;SDS011;57837;52.064;113.478;2023-05-10T04:00:29;38.17;;;22.52;;
70414;SDS011;57837;52.064;113.478;2023-05-10T04:03:34;31.40;;;20.90;;
70414;SDS011;57837;52.064;113.478;2023-05-10T04:06:39;37.07;;;18.30;;
70414;SDS011;57837;52.064;113.478;2023-05-10T04:09:43;26.67;;;17.30;;
70414;SDS011;57837;52.064;113.478;2023-05-10T04:12:47;30.15;;;17.42;;
70414;SDS011;57837;52.064;113.478;2023-05-10T04:15:51;22.95;;;17.70;;
70414;SDS011;57837;52.064;113.478;2023-05-10T04:18:55;32.90;;;17.60;;
70414;SDS011;57837;52.064;113.478;2023-05-10T04:21:59;40.47;;;16.13;;
70414;SDS011;57837;52.064;113.478;2023-05-10T04:25:03;35.75;;;16.60;;
70414;SDS011;57837;52.064;113.478;2023-05-10T04:28:07;30.80;;;17.05;;
70414;SDS011;57837;52.064;113.478;2023-05-10T04:31:11;22.88;;;16.67;;
70414;SDS011;57837;52.064;113.478;2023-05-10T04:34:15;21.92;;;13.95;;
70414;SDS011;57837;52.064;113.478;2023-05-10T04:37:19;18.97;;;12.87;;
70414;SDS011;57837;52.064;113.478;2023-05-10T04:40:24;19.13;;;14.18;;
70414;SDS011;57837;52.064;113.478;2023-05-10T04:43:29;22.02;;;13.98;;
70414;SDS011;57837;52.064;113.478;2023-05-10T04:46:32;22.88;;;14.93;;
70414;SDS011;57837;52.064;113.478;2023-05-10T04:49:36;17.15;;;12.38;;
70414;SDS011;57837;52.064;113.478;2023-05-10T04:52:40;18.23;;;12.20;;
70414;SDS011;57837;52.064;113.478;2023-05-10T04:55:45;21.50;;;12.45;;
70414;SDS011;57837;52.064;113.478;2023-05-10T04:58:49;21.83;;;12.77;;
70414;SDS011;57837;52.064;113.478;2023-05-10T05:01:53;16.92;;;11.55;;
70414;SDS011;57837;52.064;113.478;2023-05-10T05:04:57;21.27;;;11.27;;
70414;SDS011;57837;52.064;113.478;2023-05-10T05:08:01;19.80;;;11.80;;
70414;SDS011;57837;52.064;113.478;2023-05-10T05:11:04;17.85;;;11.02;;
70414;SDS011;57837;52.064;113.478;2023-05-10T05:14:08;13.50;;;9.27;;
70414;SDS011;57837;52.064;113.478;2023-05-10T05:17:12;12.23;;;7.30;;
70414;SDS011;57837;52.064;113.478;2023-05-10T05:20:16;12.30;;;7.45;;
70414;SDS011;57837;52.064;113.478;2023-05-10T05:23:21;11.63;;;8.27;;
70414;SDS011;57837;52.064;113.478;2023-05-10T05:26:27;13.48;;;7.93;;
70414;SDS011;57837;52.064;113.478;2023-05-10T05:29:31;10.85;;;6.72;;
70414;SDS011;57837;52.064;113.478;2023-05-10T05:32:35;9.98;;;7.13;;
70414;SDS011;57837;52.064;113.478;2023-05-10T05:35:39;12.23;;;7.07;;
70414;SDS011;57837;52.064;113.478;2023-05-10T05:38:43;9.13;;;7.20;;
70414;SDS011;57837;52.064;113.478;2023-05-10T05:41:47;12.52;;;7.50;;
70414;SDS011;57837;52.064;113.478;2023-05-10T05:44:51;10.85;;;7.35;;
70414;SDS011;57837;52.064;113.478;2023-05-10T05:47:55;23.98;;;9.25;;
70414;SDS011;57837;52.064;113.478;2023-05-10T05:50:59;9.20;;;6.53;;
70414;SDS011;57837;52.064;113.478;2023-05-10T05:54:07;10.90;;;6.80;;
70414;SDS011;57837;52.064;113.478;2023-05-10T05:57:10;23.05;;;10.23;;
70414;SDS011;57837;52.064;113.478;2023-05-10T06:00:13;15.00;;;6.65;;
70414;SDS011;57837;52.064;113.478;2023-05-10T06:03:20;16.92;;;8.55;;
70414;SDS011;57837;52.064;113.478;2023-05-10T06:06:23;23.63;;;9.95;;
70414;SDS011;57837;52.064;113.478;2023-05-10T06:09:26;13.83;;;7.43;;
70414;SDS011;57837;52.064;113.478;2023-05-10T06:12:30;29.33;;;7.15;;
70414;SDS011;57837;52.064;113.478;2023-05-10T06:15:34;13.63;;;5.72;;
70414;SDS011;57837;52.064;113.478;2023-05-10T06:18:37;19.60;;;5.50;;
70414;SDS011;57837;52.064;113.478;2023-05-10T06:21:41;15.45;;;5.82;;
70414;SDS011;57837;52.064;113.478;2023-05-10T06:24:45;15.97;;;6.03;;
70414;SDS011;57837;52.064;113.478;2023-05-10T06:27:49;14.73;;;6.28;;
70414;SDS011;57837;52.064;113.478;2023-05-10T06:30:55;18.95;;;6.35;;
70414;SDS011;57837;52.064;113.478;2023-05-10T06:33:59;18.60;;;6.55;;
70414;SDS011;57837;52.064;113.478;2023-05-10T06:37:02;13.38;;;6.40;;
70414;SDS011;57837;52.064;113.478;2023-05-10T06:40:07;14.10;;;7.47;;
70414;SDS011;57837;52.064;113.478;2023-05-10T06:43:11;11.95;;;7.38;;
70414;SDS011;57837;52.064;113.478;2023-05-10T06:46:15;17.25;;;7.75;;
70414;SDS011;57837;52.064;113.478;2023-05-10T06:49:18;18.70;;;7.75;;
70414;SDS011;57837;52.064;113.478;2023-05-10T06:52:22;11.00;;;6.13;;
70414;SDS011;57837;52.064;113.478;2023-05-10T06:55:26;24.10;;;6.50;;
70414;SDS011;57837;52.064;113.478;2023-05-10T06:58:30;19.23;;;6.90;;
70414;SDS011;57837;52.064;113.478;2023-05-10T07:01:35;18.45;;;7.40;;
70414;SDS011;57837;52.064;113.478;2023-05-10T07:04:39;16.73;;;8.13;;
70414;SDS011;57837;52.064;113.478;2023-05-10T07:07:43;18.00;;;8.63;;
70414;SDS011;57837;52.064;113.478;2023-05-10T07:10:47;19.03;;;7.47;;
70414;SDS011;57837;52.064;113.478;2023-05-10T07:13:51;15.43;;;7.13;;
70414;SDS011;57837;52.064;113.478;2023-05-10T07:16:55;17.23;;;7.22;;
70414;SDS011;57837;52.064;113.478;2023-05-10T07:19:59;13.80;;;7.28;;
70414;SDS011;57837;52.064;113.478;2023-05-10T07:23:03;13.80;;;7.57;;
70414;SDS011;57837;52.064;113.478;2023-05-10T07:26:07;16.70;;;8.40;;
70414;SDS011;57837;52.064;113.478;2023-05-10T07:29:11;25.58;;;9.68;;
70414;SDS011;57837;52.064;113.478;2023-05-10T07:32:14;16.00;;;7.97;;
70414;SDS011;57837;52.064;113.478;2023-05-10T07:35:18;12.95;;;7.43;;
70414;SDS011;57837;52.064;113.478;2023-05-10T07:38:22;24.83;;;7.65;;
70414;SDS011;57837;52.064;113.478;2023-05-10T07:41:26;11.47;;;6.57;;
70414;SDS011;57837;52.064;113.478;2023-05-10T07:44:30;17.45;;;7.68;;
70414;SDS011;57837;52.064;113.478;2023-05-10T07:47:34;17.50;;;7.50;;
70414;SDS011;57837;52.064;113.478;2023-05-10T07:50:38;20.95;;;8.30;;
70414;SDS011;57837;52.064;113.478;2023-05-10T07:53:41;18.20;;;7.45;;
70414;SDS011;57837;52.064;113.478;2023-05-10T07:56:45;16.17;;;7.60;;
70414;SDS011;57837;52.064;113.478;2023-05-10T07:59:50;13.05;;;7.57;;
70414;SDS011;57837;52.064;113.478;2023-05-10T08:02:54;13.98;;;7.22;;
70414;SDS011;57837;52.064;113.478;2023-05-10T08:05:58;14.93;;;7.80;;
70414;SDS011;57837;52.064;113.478;2023-05-10T08:09:02;21.30;;;8.20;;
70414;SDS011;57837;52.064;113.478;2023-05-10T08:12:06;13.17;;;8.20;;
70414;SDS011;57837;52.064;113.478;2023-05-10T08:15:10;25.92;;;8.90;;
70414;SDS011;57837;52.064;113.478;2023-05-10T08:18:14;17.67;;;9.00;;
70414;SDS011;57837;52.064;113.478;2023-05-10T08:21:17;23.60;;;8.40;;
70414;SDS011;57837;52.064;113.478;2023-05-10T08:24:25;22.05;;;8.90;;
70414;SDS011;57837;52.064;113.478;2023-05-10T08:27:28;12.50;;;6.90;;
70414;SDS011;57837;52.064;113.478;2023-05-10T08:30:31;13.20;;;7.28;;
70414;SDS011;57837;52.064;113.478;2023-05-10T08:33:35;14.43;;;7.60;;
70414;SDS011;57837;52.064;113.478;2023-05-10T08:36:39;16.92;;;7.63;;
70414;SDS011;57837;52.064;113.478;2023-05-10T08:39:44;14.55;;;8.77;;
70414;SDS011;57837;52.064;113.478;2023-05-10T08:46:10;13.32;;;8.00;;
70414;SDS011;57837;52.064;113.478;2023-05-10T08:49:16;14.45;;;7.95;;
70414;SDS011;57837;52.064;113.478;2023-05-10T08:52:23;11.85;;;7.78;;
70414;SDS011;57837;52.064;113.478;2023-05-10T08:55:29;15.68;;;7.70;;
70414;SDS011;57837;52.064;113.478;2023-05-10T08:58:33;13.63;;;8.63;;
70414;SDS011;57837;52.064;113.478;2023-05-10T09:01:36;17.48;;;8.52;;
70414;SDS011;57837;52.064;113.478;2023-05-10T09:04:40;16.42;;;8.27;;
70414;SDS011;57837;52.064;113.478;2023-05-10T09:07:45;17.20;;;8.40;;
70414;SDS011;57837;52.064;113.478;2023-05-10T09:10:48;18.23;;;8.27;;
70414;SDS011;57837;52.064;113.478;2023-05-10T09:13:52;23.83;;;8.73;;
70414;SDS011;57837;52.064;113.478;2023-05-10T09:16:56;16.50;;;8.55;;
70414;SDS011;57837;52.064;113.478;2023-05-10T09:20:00;24.98;;;8.55;;
70414;SDS011;57837;52.064;113.478;2023-05-10T09:23:05;14.90;;;8.35;;
70414;SDS011;57837;52.064;113.478;2023-05-10T09:26:09;23.33;;;8.73;;
70414;SDS011;57837;52.064;113.478;2023-05-10T09:29:14;17.90;;;7.73;;
70414;SDS011;57837;52.064;113.478;2023-05-10T09:32:19;16.10;;;7.55;;
70414;SDS011;57837;52.064;113.478;2023-05-10T09:35:23;17.90;;;7.75;;
70414;SDS011;57837;52.064;113.478;2023-05-10T09:38:35;16.13;;;6.07;;
70414;SDS011;57837;52.064;113.478;2023-05-10T09:41:52;23.83;;;5.68;;
70414;SDS011;57837;52.064;113.478;2023-05-10T09:45:03;54.73;;;7.57;;
70414;SDS011;57837;52.064;113.478;2023-05-10T09:48:07;29.52;;;5.13;;
70414;SDS011;57837;52.064;113.478;2023-05-10T09:51:21;23.80;;;5.97;;
70414;SDS011;57837;52.064;113.478;2023-05-10T09:54:26;112.70;;;11.52;;
70414;SDS011;57837;52.064;113.478;2023-05-10T09:57:30;20.40;;;6.25;;
70414;SDS011;57837;52.064;113.478;2023-05-10T10:00:37;13.43;;;5.47;;
70414;SDS011;57837;52.064;113.478;2023-05-10T10:03:45;21.73;;;8.15;;
70414;SDS011;57837;52.064;113.478;2023-05-10T10:06:58;18.08;;;6.15;;
70414;SDS011;57837;52.064;113.478;2023-05-10T10:10:03;23.17;;;5.53;;
70414;SDS011;57837;52.064;113.478;2023-05-10T10:13:07;14.07;;;5.03;;
70414;SDS011;57837;52.064;113.478;2023-05-10T10:16:10;28.27;;;6.43;;
70414;SDS011;57837;52.064;113.478;2023-05-10T10:19:13;14.85;;;5.55;;
70414;SDS011;57837;52.064;113.478;2023-05-10T10:22:18;10.13;;;4.78;;
70414;SDS011;57837;52.064;113.478;2023-05-10T10:25:21;14.50;;;5.30;;
70414;SDS011;57837;52.064;113.478;2023-05-10T10:34:50;19.83;;;5.60;;
70414;SDS011;57837;52.064;113.478;2023-05-10T10:37:55;16.73;;;4.97;;
70414;SDS011;57837;52.064;113.478;2023-05-10T10:41:03;19.65;;;4.85;;
70414;SDS011;57837;52.064;113.478;2023-05-10T10:47:28;16.70;;;5.90;;
70414;SDS011;57837;52.064;113.478;2023-05-10T10:50:43;17.35;;;7.05;;
70414;SDS011;57837;52.064;113.478;2023-05-10T10:53:48;20.90;;;5.45;;
70414;SDS011;57837;52.064;113.478;2023-05-10T10:57:11;10.70;;;5.03;;
70414;SDS011;57837;52.064;113.478;2023-05-10T11:00:23;16.95;;;7.80;;
70414;SDS011;57837;52.064;113.478;2023-05-10T11:03:27;15.13;;;6.33;;
70414;SDS011;57837;52.064;113.478;2023-05-10T11:09:39;14.30;;;5.75;;
70414;SDS011;57837;52.064;113.478;2023-05-10T11:13:02;12.18;;;5.82;;
70414;SDS011;57837;52.064;113.478;2023-05-10T11:16:11;11.55;;;5.05;;
70414;SDS011;57837;52.064;113.478;2023-05-10T11:19:16;21.97;;;5.83;;
70414;SDS011;57837;52.064;113.478;2023-05-10T11:22:21;13.20;;;5.35;;
70414;SDS011;57837;52.064;113.478;2023-05-10T11:25:28;13.95;;;5.20;;
70414;SDS011;57837;52.064;113.478;2023-05-10T11:28:32;13.73;;;5.85;;
70414;SDS011;57837;52.064;113.478;2023-05-10T11:31:41;19.73;;;5.55;;
70414;SDS011;57837;52.064;113.478;2023-05-10T11:34:46;16.90;;;5.80;;
70414;SDS011;57837;52.064;113.478;2023-05-10T11:37:51;17.50;;;6.28;;
70414;SDS011;57837;52.064;113.478;2023-05-10T11:40:55;16.42;;;5.93;;
70414;SDS011;57837;52.064;113.478;2023-05-10T11:43:59;17.98;;;6.97;;
70414;SDS011;57837;52.064;113.478;2023-05-10T11:47:02;24.40;;;10.20;;
70414;SDS011;57837;52.064;113.478;2023-05-10T11:50:07;17.57;;;6.83;;
70414;SDS011;57837;52.064;113.478;2023-05-10T11:53:10;13.18;;;5.97;;
70414;SDS011;57837;52.064;113.478;2023-05-10T11:56:16;12.77;;;5.82;;
70414;SDS011;57837;52.064;113.478;2023-05-10T11:59:19;12.32;;;6.53;;
70414;SDS011;57837;52.064;113.478;2023-05-10T12:02:23;17.90;;;6.80;;
70414;SDS011;57837;52.064;113.478;2023-05-10T12:05:26;17.27;;;6.47;;
70414;SDS011;57837;52.064;113.478;2023-05-10T12:08:30;18.23;;;7.13;;
70414;SDS011;57837;52.064;113.478;2023-05-10T12:11:37;10.60;;;6.00;;
70414;SDS011;57837;52.064;113.478;2023-05-10T12:14:48;17.10;;;6.10;;
70414;SDS011;57837;52.064;113.478;2023-05-10T12:17:53;12.23;;;5.47;;
70414;SDS011;57837;52.064;113.478;2023-05-10T12:21:02;17.53;;;6.63;;
70414;SDS011;57837;52.064;113.478;2023-05-10T12:24:08;13.48;;;6.18;;
70414;SDS011;57837;52.064;113.478;2023-05-10T12:27:12;16.17;;;6.82;;
70414;SDS011;57837;52.064;113.478;2023-05-10T12:30:33;22.88;;;7.57;;
70414;SDS011;57837;52.064;113.478;2023-05-10T12:33:38;13.73;;;7.00;;
70414;SDS011;57837;52.064;113.478;2023-05-10T12:36:46;22.03;;;7.00;;
70414;SDS011;57837;52.064;113.478;2023-05-10T12:39:55;29.55;;;9.95;;
70414;SDS011;57837;52.064;113.478;2023-05-10T12:42:58;20.70;;;8.18;;
70414;SDS011;57837;52.064;113.478;2023-05-10T12:46:09;28.83;;;8.95;;
70414;SDS011;57837;52.064;113.478;2023-05-10T12:49:17;21.25;;;10.10;;
70414;SDS011;57837;52.064;113.478;2023-05-10T12:52:22;28.30;;;9.90;;
70414;SDS011;57837;52.064;113.478;2023-05-10T12:55:26;17.95;;;8.48;;
70414;SDS011;57837;52.064;113.478;2023-05-10T12:58:29;20.45;;;9.60;;
70414;SDS011;57837;52.064;113.478;2023-05-10T13:01:37;20.80;;;8.82;;
70414;SDS011;57837;52.064;113.478;2023-05-10T13:04:41;28.02;;;13.07;;
70414;SDS011;57837;52.064;113.478;2023-05-10T13:07:45;40.60;;;15.50;;
70414;SDS011;57837;52.064;113.478;2023-05-10T13:10:49;36.20;;;14.00;;
70414;SDS011;57837;52.064;113.478;2023-05-10T13:13:53;30.42;;;12.45;;
70414;SDS011;57837;52.064;113.478;2023-05-10T13:16:57;29.40;;;12.75;;
70414;SDS011;57837;52.064;113.478;2023-05-10T13:20:01;27.95;;;13.43;;
70414;SDS011;57837;52.064;113.478;2023-05-10T13:23:05;34.77;;;13.97;;
70414;SDS011;57837;52.064;113.478;2023-05-10T13:26:08;33.33;;;14.10;;
70414;SDS011;57837;52.064;113.478;2023-05-10T13:29:12;16.10;;;6.68;;
70414;SDS011;57837;52.064;113.478;2023-05-10T13:32:16;19.05;;;8.57;;
70414;SDS011;57837;52.064;113.478;2023-05-10T13:35:20;24.48;;;11.60;;
70414;SDS011;57837;52.064;113.478;2023-05-10T13:38:24;18.37;;;10.50;;
70414;SDS011;57837;52.064;113.478;2023-05-10T13:41:28;14.43;;;7.80;;
70414;SDS011;57837;52.064;113.478;2023-05-10T13:44:31;11.98;;;6.25;;
70414;SDS011;57837;52.064;113.478;2023-05-10T13:47:35;19.17;;;8.20;;
70414;SDS011;57837;52.064;113.478;2023-05-10T13:50:39;14.32;;;8.23;;
70414;SDS011;57837;52.064;113.478;2023-05-10T13:53:43;23.43;;;9.33;;
70414;SDS011;57837;52.064;113.478;2023-05-10T13:56:47;19.13;;;7.88;;
70414;SDS011;57837;52.064;113.478;2023-05-10T13:59:51;27.17;;;9.13;;
70414;SDS011;57837;52.064;113.478;2023-05-10T14:02:58;15.85;;;7.60;;
70414;SDS011;57837;52.064;113.478;2023-05-10T14:06:02;24.42;;;8.85;;
70414;SDS011;57837;52.064;113.478;2023-05-10T14:09:06;21.80;;;9.93;;
70414;SDS011;57837;52.064;113.478;2023-05-10T14:12:10;26.33;;;10.02;;
70414;SDS011;57837;52.064;113.478;2023-05-10T14:15:13;16.75;;;7.93;;
70414;SDS011;57837;52.064;113.478;2023-05-10T14:18:18;14.88;;;7.85;;
70414;SDS011;57837;52.064;113.478;2023-05-10T14:21:22;19.60;;;9.00;;
70414;SDS011;57837;52.064;113.478;2023-05-10T14:24:25;15.07;;;8.33;;
70414;SDS011;57837;52.064;113.478;2023-05-10T14:27:28;24.13;;;10.43;;
70414;SDS011;57837;52.064;113.478;2023-05-10T14:30:32;23.05;;;11.18;;
70414;SDS011;57837;52.064;113.478;2023-05-10T14:33:38;25.77;;;10.43;;
70414;SDS011;57837;52.064;113.478;2023-05-10T14:36:42;16.67;;;7.43;;
70414;SDS011;57837;52.064;113.478;2023-05-10T14:39:45;9.83;;;5.27;;
70414;SDS011;57837;52.064;113.478;2023-05-10T14:42:50;8.25;;;4.65;;
70414;SDS011;57837;52.064;113.478;2023-05-10T14:45:55;9.73;;;4.30;;
70414;SDS011;57837;52.064;113.478;2023-05-10T14:48:59;7.18;;;4.35;;
70414;SDS011;57837;52.064;113.478;2023-05-10T14:52:03;11.13;;;5.30;;
70414;SDS011;57837;52.064;113.478;2023-05-10T14:55:07;6.33;;;4.30;;
70414;SDS011;57837;52.064;113.478;2023-05-10T14:58:11;11.98;;;5.45;;
70414;SDS011;57837;52.064;113.478;2023-05-10T15:01:14;14.82;;;6.07;;
70414;SDS011;57837;52.064;113.478;2023-05-10T15:04:19;9.65;;;4.55;;
70414;SDS011;57837;52.064;113.478;2023-05-10T15:07:24;8.60;;;4.45;;
70414;SDS011;57837;52.064;113.478;2023-05-10T15:10:27;11.80;;;4.97;;
70414;SDS011;57837;52.064;113.478;2023-05-10T15:13:32;9.30;;;4.80;;
70414;SDS011;57837;52.064;113.478;2023-05-10T15:16:36;9.30;;;5.88;;
70414;SDS011;57837;52.064;113.478;2023-05-10T15:19:40;9.07;;;4.55;;
70414;SDS011;57837;52.064;113.478;2023-05-10T15:22:43;9.43;;;4.78;;
70414;SDS011;57837;52.064;113.478;2023-05-10T15:25:47;12.73;;;4.77;;
70414;SDS011;57837;52.064;113.478;2023-05-10T15:28:53;8.57;;;4.53;;
70414;SDS011;57837;52.064;113.478;2023-05-10T15:31:57;12.90;;;5.03;;
70414;SDS011;57837;52.064;113.478;2023-05-10T15:35:01;10.38;;;4.30;;
70414;SDS011;57837;52.064;113.478;2023-05-10T15:38:06;6.72;;;3.75;;
70414;SDS011;57837;52.064;113.478;2023-05-10T15:41:09;8.47;;;4.37;;
70414;SDS011;57837;52.064;113.478;2023-05-10T15:44:13;8.52;;;4.45;;
70414;SDS011;57837;52.064;113.478;2023-05-10T15:47:17;8.63;;;3.83;;
70414;SDS011;57837;52.064;113.478;2023-05-10T15:50:20;8.13;;;4.00;;
70414;SDS011;57837;52.064;113.478;2023-05-10T15:53:24;8.77;;;4.30;;
70414;SDS011;57837;52.064;113.478;2023-05-10T15:56:28;10.90;;;4.20;;
70414;SDS011;57837;52.064;113.478;2023-05-10T15:59:32;7.50;;;3.97;;
70414;SDS011;57837;52.064;113.478;2023-05-10T16:02:38;21.40;;;4.43;;
70414;SDS011;57837;52.064;113.478;2023-05-10T16:05:43;10.30;;;4.47;;
70414;SDS011;57837;52.064;113.478;2023-05-10T16:08:46;8.45;;;4.80;;
70414;SDS011;57837;52.064;113.478;2023-05-10T16:11:50;5.40;;;3.50;;
70414;SDS011;57837;52.064;113.478;2023-05-10T16:14:54;6.57;;;3.60;;
70414;SDS011;57837;52.064;113.478;2023-05-10T16:17:58;6.10;;;3.75;;
70414;SDS011;57837;52.064;113.478;2023-05-10T16:21:02;9.45;;;4.00;;
70414;SDS011;57837;52.064;113.478;2023-05-10T16:24:06;8.40;;;3.90;;
70414;SDS011;57837;52.064;113.478;2023-05-10T16:27:10;6.83;;;3.40;;
70414;SDS011;57837;52.064;113.478;2023-05-10T16:30:15;10.23;;;3.63;;
70414;SDS011;57837;52.064;113.478;2023-05-10T16:33:19;7.90;;;3.95;;
70414;SDS011;57837;52.064;113.478;2023-05-10T16:36:23;12.63;;;4.07;;
70414;SDS011;57837;52.064;113.478;2023-05-10T16:39:26;9.38;;;3.80;;
70414;SDS011;57837;52.064;113.478;2023-05-10T16:42:30;10.27;;;4.23;;
70414;SDS011;57837;52.064;113.478;2023-05-10T16:45:34;8.52;;;3.80;;
70414;SDS011;57837;52.064;113.478;2023-05-10T16:48:38;6.43;;;3.65;;
70414;SDS011;57837;52.064;113.478;2023-05-10T16:51:42;7.50;;;3.78;;
70414;SDS011;57837;52.064;113.478;2023-05-10T16:54:46;9.52;;;4.07;;
70414;SDS011;57837;52.064;113.478;2023-05-10T16:57:50;9.77;;;4.40;;
70414;SDS011;57837;52.064;113.478;2023-05-10T17:00:53;9.75;;;4.70;;
70414;SDS011;57837;52.064;113.478;2023-05-10T17:03:56;9.93;;;4.60;;
70414;SDS011;57837;52.064;113.478;2023-05-10T17:07:00;10.43;;;5.13;;
70414;SDS011;57837;52.064;113.478;2023-05-10T17:10:03;9.85;;;4.55;;
70414;SDS011;57837;52.064;113.478;2023-05-10T17:13:06;9.23;;;4.10;;
70414;SDS011;57837;52.064;113.478;2023-05-10T17:16:11;9.88;;;4.30;;
70414;SDS011;57837;52.064;113.478;2023-05-10T17:19:15;8.20;;;4.40;;
70414;SDS011;57837;52.064;113.478;2023-05-10T17:22:19;8.65;;;3.90;;
70414;SDS011;57837;52.064;113.478;2023-05-10T17:25:22;10.00;;;4.18;;
70414;SDS011;57837;52.064;113.478;2023-05-10T17:28:25;7.73;;;4.40;;
70414;SDS011;57837;52.064;113.478;2023-05-10T17:31:29;10.30;;;4.15;;
70414;SDS011;57837;52.064;113.478;2023-05-10T17:34:58;7.43;;;4.10;;
70414;SDS011;57837;52.064;113.478;2023-05-10T17:38:02;7.45;;;4.32;;
70414;SDS011;57837;52.064;113.478;2023-05-10T17:41:06;9.98;;;4.70;;
70414;SDS011;57837;52.064;113.478;2023-05-10T17:44:10;9.33;;;4.77;;
70414;SDS011;57837;52.064;113.478;2023-05-10T17:47:14;11.60;;;5.18;;
70414;SDS011;57837;52.064;113.478;2023-05-10T17:50:17;10.02;;;5.10;;
70414;SDS011;57837;52.064;113.478;2023-05-10T17:53:21;8.13;;;4.35;;
70414;SDS011;57837;52.064;113.478;2023-05-10T17:56:25;9.98;;;5.18;;
70414;SDS011;57837;52.064;113.478;2023-05-10T17:59:29;7.07;;;4.20;;
70414;SDS011;57837;52.064;113.478;2023-05-10T18:02:32;8.68;;;4.35;;
70414;SDS011;57837;52.064;113.478;2023-05-10T18:05:38;10.68;;;4.55;;
70414;SDS011;57837;52.064;113.478;2023-05-10T18:08:42;11.63;;;5.25;;
70414;SDS011;57837;52.064;113.478;2023-05-10T18:11:46;9.38;;;4.43;;
70414;SDS011;57837;52.064;113.478;2023-05-10T18:14:49;10.90;;;4.93;;
70414;SDS011;57837;52.064;113.478;2023-05-10T18:17:53;11.45;;;4.63;;